Time;durP1;ratioP1;P1;durP2;ratioP2;P2;SDS_P1;SDS_P2;PMS_P1;PMS_P2;Temp;Humidity;BMP_temperature;BMP_pressure;BME280_temperature;BME280_humidity;BME280_pressure;Samples;Min_cycle;Max_cycle;Signal;HPM_P1;HPM_P2
2022/09/28 00:01:56;;;;;;;15.47;14.77;;;10.10;92.30;;;;;;5023334;28;20465;-74
2022/09/28 00:04:23;;;;;;;15.50;14.80;;;10.20;92.20;;;;;;5025218;28;20483;-74
2022/09/28 00:06:50;;;;;;;15.80;15.10;;;10.20;92.30;;;;;;5026644;28;20842;-74
2022/09/28 00:09:17;;;;;;;15.63;14.87;;;10.20;92.20;;;;;;5026900;28;20467;-75
2022/09/28 00:11:46;;;;;;;15.37;14.77;;;10.20;92.40;;;;;;5027121;28;20490;-74
2022/09/28 00:14:14;;;;;;;15.57;14.63;;;10.20;92.50;;;;;;5024113;28;20559;-74
2022/09/28 00:16:43;;;;;;;15.40;14.60;;;10.20;92.40;;;;;;5025886;28;20602;-74
2022/09/28 00:19:11;;;;;;;15.20;14.53;;;10.20;92.50;;;;;;5027162;28;20563;-73
2022/09/28 00:21:40;;;;;;;15.50;14.80;;;10.20;92.70;;;;;;5024984;28;20452;-73
2022/09/28 00:24:17;;;;;;;15.77;14.90;;;10.30;92.80;;;;;;5022792;28;20504;-74
2022/09/28 00:26:48;;;;;;;14.67;13.97;;;10.30;92.50;;;;;;5017283;28;20569;-75
2022/09/28 00:29:20;;;;;;;13.97;13.33;;;10.40;92.40;;;;;;5028487;28;20466;-74
2022/09/28 00:31:48;;;;;;;14.10;13.50;;;10.30;92.50;;;;;;5025131;28;20459;-72
2022/09/28 00:34:15;;;;;;;14.60;13.80;;;10.40;92.40;;;;;;5021653;28;20486;-72
2022/09/28 00:36:45;;;;;;;14.57;13.97;;;10.30;92.60;;;;;;5027613;28;20474;-73
2022/09/28 00:39:14;;;;;;;14.57;13.97;;;10.40;92.50;;;;;;5027427;28;20954;-73
2022/09/28 00:41:42;;;;;;;13.93;13.33;;;10.30;92.60;;;;;;5026695;28;20831;-72
2022/09/28 00:44:44;;;;;;;14.27;13.67;;;10.40;92.70;;;;;;5024668;28;20475;-73
2022/09/28 00:47:36;;;;;;;14.13;13.43;;;10.40;92.70;;;;;;5024109;28;20475;-72
2022/09/28 00:50:08;;;;;;;13.60;13.03;;;10.40;92.80;;;;;;5014742;28;20526;-72
2022/09/28 00:52:42;;;;;;;14.00;13.40;;;10.40;92.70;;;;;;5026232;28;21163;-73
2022/09/28 00:55:13;;;;;;;13.90;13.30;;;10.40;92.70;;;;;;5026148;28;20571;-73
2022/09/28 00:57:44;;;;;;;13.87;13.27;;;10.50;92.90;;;;;;5028377;28;20452;-72
2022/09/28 01:00:13;;;;;;;12.87;12.37;;;10.50;92.70;;;;;;5021124;28;20465;-72
2022/09/28 01:02:40;;;;;;;13.93;13.13;;;10.50;92.70;;;;;;5035115;28;20472;-72
2022/09/28 01:05:09;;;;;;;13.57;12.97;;;10.50;92.80;;;;;;5018487;28;20452;-72
2022/09/28 01:07:36;;;;;;;13.33;12.73;;;10.50;92.90;;;;;;5023402;28;20485;-72
2022/09/28 01:10:04;;;;;;;13.63;13.10;;;10.50;93.20;;;;;;5024596;28;21249;-72
2022/09/28 01:12:31;;;;;;;13.87;13.23;;;10.50;93.30;;;;;;5025632;28;20462;-72
2022/09/28 01:15:38;;;;;;;13.40;12.70;;;10.50;93.60;;;;;;5023476;28;20465;-72
2022/09/28 01:18:17;;;;;;;13.27;12.67;;;10.60;93.50;;;;;;5027948;28;21246;-72
2022/09/28 01:20:55;;;;;;;13.20;12.50;;;10.50;93.90;;;;;;5026644;28;20461;-72
2022/09/28 01:23:58;;;;;;;12.60;11.97;;;10.50;94.00;;;;;;5023560;28;20482;-73
2022/09/28 01:26:46;;;;;;;13.03;12.43;;;10.60;93.70;;;;;;5021740;28;20969;-73
2022/09/28 01:29:25;;;;;;;12.40;11.70;;;10.60;93.60;;;;;;5021960;28;21101;-74
2022/09/28 01:32:11;;;;;;;12.50;11.90;;;10.60;93.60;;;;;;5023793;28;20457;-72
2022/09/28 01:34:43;;;;;;;12.93;12.33;;;10.60;93.70;;;;;;5024970;28;20977;-73
2022/09/28 01:37:14;;;;;;;13.27;12.50;;;10.70;93.50;;;;;;5024961;28;20457;-73
2022/09/28 01:39:45;;;;;;;13.43;12.53;;;10.60;93.60;;;;;;5025486;28;20460;-73
2022/09/28 01:42:20;;;;;;;12.83;12.00;;;10.60;93.90;;;;;;5021904;28;20474;-72
2022/09/28 01:44:50;;;;;;;12.63;12.13;;;10.60;94.00;;;;;;5022988;28;20969;-73
2022/09/28 01:47:22;;;;;;;12.93;12.27;;;10.60;94.00;;;;;;5028550;28;20475;-72
2022/09/28 01:49:54;;;;;;;12.70;12.00;;;10.70;93.80;;;;;;5028361;28;20529;-73
2022/09/28 01:52:27;;;;;;;12.07;11.47;;;10.80;93.40;;;;;;5023382;28;20469;-72
2022/09/28 01:55:00;;;;;;;12.47;11.77;;;10.70;93.50;;;;;;5023321;28;20965;-73
2022/09/28 01:57:35;;;;;;;12.30;11.70;;;10.70;93.40;;;;;;5026096;28;20853;-74
2022/09/28 02:00:07;;;;;;;12.87;11.90;;;10.90;93.30;;;;;;5025006;28;20466;-74
2022/09/28 02:02:39;;;;;;;12.00;11.30;;;10.80;93.20;;;;;;5024037;28;20554;-73
2022/09/28 02:05:11;;;;;;;12.20;11.60;;;10.80;93.50;;;;;;5027021;28;20477;-73
2022/09/28 02:07:41;;;;;;;13.27;12.33;;;10.90;93.60;;;;;;5023283;28;20488;-73
2022/09/28 02:10:13;;;;;;;14.67;13.77;;;10.90;93.30;;;;;;5027207;28;20550;-74
2022/09/28 02:12:45;;;;;;;12.73;12.07;;;10.90;93.30;;;;;;5024841;28;20558;-73
2022/09/28 02:15:18;;;;;;;12.90;12.20;;;11.00;93.10;;;;;;5022431;28;21154;-74
2022/09/28 02:17:45;;;;;;;15.20;14.13;;;11.00;93.10;;;;;;5022563;28;20454;-74
2022/09/28 02:20:13;;;;;;;12.70;12.00;;;10.90;93.00;;;;;;5028648;28;20470;-74
2022/09/28 02:22:44;;;;;;;12.73;11.73;;;11.00;92.90;;;;;;5026155;28;20491;-74
2022/09/28 02:25:14;;;;;;;12.70;12.00;;;11.00;93.10;;;;;;5030084;28;20841;-74
2022/09/28 02:27:50;;;;;;;15.90;14.90;;;11.10;93.10;;;;;;5028604;28;20479;-74
2022/09/28 02:30:18;;;;;;;12.70;11.87;;;11.10;92.90;;;;;;5028054;28;21077;-73
2022/09/28 02:32:48;;;;;;;12.97;12.17;;;11.20;92.80;;;;;;5025719;28;21593;-74
2022/09/28 02:35:18;;;;;;;14.90;13.80;;;11.10;92.60;;;;;;5029275;28;20506;-74
2022/09/28 02:37:45;;;;;;;13.97;13.00;;;11.10;92.90;;;;;;5030922;28;20536;-74
2022/09/28 02:40:14;;;;;;;13.27;12.30;;;11.10;92.80;;;;;;5030800;28;20464;-73
2022/09/28 02:43:00;;;;;;;13.13;12.43;;;11.10;92.90;;;;;;5029831;28;20578;-76
2022/09/28 02:45:43;;;;;;;13.70;12.67;;;11.10;92.80;;;;;;5022825;28;20835;-74
2022/09/28 02:48:20;;;;;;;13.70;12.40;;;11.10;93.20;;;;;;5029129;28;20467;-74
2022/09/28 02:51:00;;;;;;;15.90;15.00;;;11.20;93.00;;;;;;5027716;28;20895;-74
2022/09/28 02:53:53;;;;;;;17.47;16.57;;;11.20;92.80;;;;;;5028630;28;20474;-73
2022/09/28 02:56:41;;;;;;;13.73;12.80;;;11.20;92.60;;;;;;5025101;28;20972;-77
2022/09/28 02:59:19;;;;;;;13.77;13.07;;;11.20;92.50;;;;;;5025936;28;20455;-74
2022/09/28 03:01:55;;;;;;;12.17;11.43;;;11.20;93.10;;;;;;5028100;28;20471;-74
2022/09/28 03:04:30;;;;;;;13.10;12.20;;;11.20;92.80;;;;;;5025785;28;20731;-74
2022/09/28 03:07:04;;;;;;;14.40;13.80;;;11.20;93.10;;;;;;5018669;28;20463;-74
2022/09/28 03:09:37;;;;;;;14.20;13.40;;;11.20;93.10;;;;;;5030781;28;20504;-74
2022/09/28 03:12:08;;;;;;;17.13;16.33;;;11.20;92.90;;;;;;5027286;28;20486;-74
2022/09/28 03:14:37;;;;;;;13.30;12.50;;;11.20;93.00;;;;;;5029016;28;20475;-75
2022/09/28 03:17:04;;;;;;;13.30;12.70;;;11.20;93.20;;;;;;5025927;28;20479;-75
2022/09/28 03:19:35;;;;;;;25.67;24.43;;;11.10;93.00;;;;;;5029198;28;20460;-75
2022/09/28 03:22:02;;;;;;;14.83;13.67;;;11.20;93.20;;;;;;5030274;28;20554;-74
2022/09/28 03:24:29;;;;;;;18.10;17.30;;;11.30;92.90;;;;;;5026775;28;20475;-75
2022/09/28 03:26:56;;;;;;;16.40;15.40;;;11.30;92.70;;;;;;5028886;28;20971;-74
2022/09/28 03:29:22;;;;;;;20.80;19.60;;;11.20;92.70;;;;;;5028309;28;20478;-74
2022/09/28 03:31:51;;;;;;;30.40;28.93;;;11.20;92.60;;;;;;5029730;28;20892;-75
2022/09/28 03:34:17;;;;;;;21.37;19.97;;;11.20;92.80;;;;;;5028612;28;20501;-74
2022/09/28 03:36:44;;;;;;;18.63;17.60;;;11.20;92.70;;;;;;5027173;28;20459;-75
2022/09/28 03:39:11;;;;;;;17.70;16.37;;;11.30;92.60;;;;;;5027225;28;20504;-74
2022/09/28 03:41:38;;;;;;;23.43;22.40;;;11.30;92.70;;;;;;5029752;28;20467;-74
2022/09/28 03:44:05;;;;;;;25.33;24.10;;;11.20;92.80;;;;;;5026513;28;21694;-73
2022/09/28 03:46:32;;;;;;;17.90;16.80;;;11.20;92.90;;;;;;5027487;28;20455;-72
2022/09/28 03:49:00;;;;;;;19.00;18.03;;;11.30;93.00;;;;;;5027900;28;21001;-73
2022/09/28 03:51:27;;;;;;;13.50;12.70;;;11.20;93.00;;;;;;5029163;28;20459;-72
2022/09/28 03:53:54;;;;;;;18.73;17.83;;;11.20;93.00;;;;;;5029997;28;20838;-72
2022/09/28 03:56:21;;;;;;;14.27;13.37;;;11.30;92.80;;;;;;5029328;28;20456;-73
2022/09/28 03:58:48;;;;;;;25.67;24.20;;;11.30;92.80;;;;;;5028742;28;20462;-73
2022/09/28 04:01:15;;;;;;;24.23;22.93;;;11.30;93.00;;;;;;5032214;28;20466;-72
2022/09/28 04:03:42;;;;;;;15.50;14.80;;;11.30;93.00;;;;;;5037030;28;20896;-73
2022/09/28 04:06:11;;;;;;;15.13;14.13;;;11.20;93.30;;;;;;5024245;28;20454;-72
2022/09/28 04:08:39;;;;;;;13.20;12.50;;;11.20;93.70;;;;;;5025744;28;21032;-72
2022/09/28 04:11:06;;;;;;;15.30;14.53;;;11.20;93.80;;;;;;5029826;28;20479;-73
2022/09/28 04:13:32;;;;;;;15.00;14.30;;;10.90;94.60;;;;;;5036449;28;20475;-74
2022/09/28 04:16:01;;;;;;;15.40;14.70;;;10.90;95.50;;;;;;5026031;28;20469;-77
2022/09/28 04:18:28;;;;;;;15.73;14.73;;;10.90;95.40;;;;;;5026605;28;20969;-76
2022/09/28 04:21:02;;;;;;;13.97;13.20;;;11.00;94.90;;;;;;5028088;28;20986;-74
2022/09/28 04:23:30;;;;;;;22.20;21.10;;;11.00;94.60;;;;;;5035257;28;20510;-75
2022/09/28 04:25:57;;;;;;;12.90;12.20;;;11.00;94.30;;;;;;5025526;28;20471;-75
2022/09/28 04:31:10;;;;;;;15.57;14.77;;;11.00;94.20;;;;;;5028808;28;20470;-74
2022/09/28 04:33:37;;;;;;;13.70;13.03;;;11.10;93.00;;;;;;5037087;28;20519;-74
2022/09/28 04:36:04;;;;;;;26.90;25.80;;;11.00;92.60;;;;;;5027951;28;20467;-78
2022/09/28 04:38:33;;;;;;;15.40;14.70;;;11.00;92.30;;;;;;5022714;28;20795;-74
2022/09/28 04:41:00;;;;;;;28.83;27.57;;;11.00;91.50;;;;;;5018467;28;20472;-74
2022/09/28 04:43:27;;;;;;;17.60;16.80;;;11.10;91.90;;;;;;5023481;28;20486;-74
2022/09/28 04:45:58;;;;;;;13.00;12.33;;;11.00;91.40;;;;;;5026250;28;20483;-74
2022/09/28 04:48:25;;;;;;;13.37;12.73;;;11.00;92.00;;;;;;5026641;28;20488;-74
2022/09/28 04:50:55;;;;;;;27.30;26.03;;;10.90;92.30;;;;;;5025734;28;20460;-72
2022/09/28 04:53:22;;;;;;;21.97;20.77;;;10.90;93.10;;;;;;5036326;28;20501;-72
2022/09/28 04:55:58;;;;;;;12.57;12.07;;;10.90;92.70;;;;;;5026071;28;20467;-73
2022/09/28 04:58:25;;;;;;;17.03;16.30;;;10.90;92.90;;;;;;5022348;28;20458;-73
2022/09/28 05:00:53;;;;;;;20.53;19.63;;;10.90;92.60;;;;;;5025706;28;20448;-72
2022/09/28 05:03:21;;;;;;;22.17;21.27;;;10.90;92.50;;;;;;5037911;28;20549;-73
2022/09/28 05:05:48;;;;;;;18.90;17.90;;;11.00;92.40;;;;;;5025143;28;20829;-73
2022/09/28 05:08:16;;;;;;;15.23;14.53;;;10.80;92.40;;;;;;5026170;28;20486;-73
2022/09/28 05:10:43;;;;;;;14.33;13.57;;;10.80;92.20;;;;;;5025726;28;20841;-72
2022/09/28 05:13:13;;;;;;;20.47;19.57;;;10.60;92.90;;;;;;5027883;28;20494;-73
2022/09/28 05:15:41;;;;;;;16.17;15.40;;;10.60;93.20;;;;;;5026113;28;20486;-72
2022/09/28 05:18:08;;;;;;;12.73;12.23;;;10.70;93.50;;;;;;5028819;28;20460;-73
2022/09/28 05:20:41;;;;;;;17.87;17.07;;;10.60;93.00;;;;;;5025482;28;20961;-75
2022/09/28 05:23:10;;;;;;;14.60;13.90;;;10.70;92.90;;;;;;5024689;28;20489;-74
2022/09/28 05:25:38;;;;;;;13.23;12.73;;;10.70;92.90;;;;;;5026355;28;20512;-74
2022/09/28 05:28:05;;;;;;;11.50;11.00;;;10.60;93.20;;;;;;5029599;28;20456;-74
2022/09/28 05:30:33;;;;;;;35.37;33.80;;;10.60;93.20;;;;;;5024944;28;20663;-74
2022/09/28 05:33:00;;;;;;;13.87;13.27;;;10.60;93.30;;;;;;5026002;28;20489;-74
2022/09/28 05:35:28;;;;;;;16.30;15.33;;;10.70;93.50;;;;;;5025371;28;20461;-75
2022/09/28 05:37:55;;;;;;;15.90;15.13;;;10.60;93.60;;;;;;5024424;28;20484;-75
2022/09/28 05:40:22;;;;;;;14.67;13.97;;;10.60;93.70;;;;;;5025564;28;20455;-73
2022/09/28 05:42:49;;;;;;;19.40;18.50;;;10.70;93.30;;;;;;5023091;28;21031;-75
2022/09/28 05:45:16;;;;;;;13.57;12.90;;;10.60;93.40;;;;;;5027350;28;20915;-74
2022/09/28 05:47:45;;;;;;;15.77;14.97;;;10.60;93.00;;;;;;5028837;28;20462;-78
2022/09/28 05:50:14;;;;;;;16.70;15.90;;;10.70;93.10;;;;;;5028805;28;20478;-73
2022/09/28 05:52:43;;;;;;;16.37;15.33;;;10.70;92.90;;;;;;5027049;28;20856;-73
2022/09/28 05:55:10;;;;;;;24.70;23.60;;;10.70;92.80;;;;;;5029929;28;20823;-73
2022/09/28 05:57:37;;;;;;;15.90;15.23;;;10.60;93.00;;;;;;5036979;28;20484;-74
2022/09/28 06:00:06;;;;;;;24.57;23.47;;;10.60;93.30;;;;;;5031860;28;20459;-75
2022/09/28 06:02:33;;;;;;;15.03;14.23;;;10.70;93.50;;;;;;5031920;28;20455;-73
2022/09/28 06:05:01;;;;;;;28.43;27.10;;;10.70;93.20;;;;;;5031409;28;20458;-73
2022/09/28 06:07:31;;;;;;;19.67;18.67;;;10.70;92.80;;;;;;5032850;28;20459;-75
2022/09/28 06:09:59;;;;;;;26.40;25.30;;;10.70;92.80;;;;;;5033627;28;20514;-73
2022/09/28 06:12:26;;;;;;;14.57;13.87;;;10.70;92.80;;;;;;5035658;28;20461;-71
2022/09/28 06:14:53;;;;;;;31.37;30.07;;;10.70;93.10;;;;;;5028628;28;20961;-74
2022/09/28 06:17:19;;;;;;;16.00;15.10;;;10.70;93.10;;;;;;5029228;28;20456;-70
2022/09/28 06:19:46;;;;;;;21.30;20.23;;;10.80;93.10;;;;;;5034202;28;20452;-71
2022/09/28 06:22:14;;;;;;;21.27;20.00;;;10.80;93.50;;;;;;5022582;28;20576;-72
2022/09/28 06:24:41;;;;;;;15.17;14.57;;;10.90;93.10;;;;;;5027656;28;20465;-76
2022/09/28 06:27:08;;;;;;;14.90;14.00;;;10.90;93.00;;;;;;5037432;28;20467;-75
2022/09/28 06:29:35;;;;;;;31.13;29.60;;;10.90;93.20;;;;;;5031939;28;20487;-75
2022/09/28 06:32:02;;;;;;;33.30;31.70;;;11.00;93.10;;;;;;5040812;28;20469;-77
2022/09/28 06:34:29;;;;;;;24.77;23.53;;;11.00;93.10;;;;;;5032724;28;20471;-78
2022/09/28 06:36:57;;;;;;;29.80;28.50;;;11.00;93.20;;;;;;5031838;28;20451;-74
2022/09/28 06:39:25;;;;;;;24.30;22.90;;;11.10;93.40;;;;;;5027320;28;20457;-75
2022/09/28 06:41:52;;;;;;;19.67;18.87;;;11.10;93.10;;;;;;5032125;28;20466;-75
2022/09/28 06:44:19;;;;;;;66.70;25.00;;;11.20;92.80;;;;;;5030907;28;20476;-70
2022/09/28 06:46:47;;;;;;;22.17;20.97;;;11.30;93.60;;;;;;5028021;28;20664;-78
2022/09/28 06:49:13;;;;;;;16.27;15.27;;;11.30;93.30;;;;;;5040958;28;20482;-72
2022/09/28 06:51:41;;;;;;;153.03;33.20;;;11.40;92.90;;;;;;5029490;28;20463;-73
2022/09/28 06:54:07;;;;;;;25.70;24.50;;;11.40;93.80;;;;;;5020760;28;20579;-73
2022/09/28 06:56:36;;;;;;;24.00;22.47;;;11.40;93.30;;;;;;5029556;28;20464;-73
2022/09/28 06:59:02;;;;;;;30.20;28.90;;;11.40;92.80;;;;;;5029209;28;20474;-75
2022/09/28 07:01:29;;;;;;;29.83;28.43;;;11.50;92.50;;;;;;5032863;28;20464;-72
2022/09/28 07:03:56;;;;;;;27.70;26.40;;;11.50;90.90;;;;;;5023299;28;20483;-77
2022/09/28 07:06:25;;;;;;;25.80;24.40;;;11.40;91.00;;;;;;5027370;28;20563;-72
2022/09/28 07:08:52;;;;;;;16.33;15.63;;;11.30;90.60;;;;;;5030219;28;20479;-72
2022/09/28 07:11:20;;;;;;;26.63;25.47;;;11.30;91.20;;;;;;5028709;28;20455;-73
2022/09/28 07:13:49;;;;;;;20.63;19.47;;;11.40;91.00;;;;;;5028103;28;20712;-73
2022/09/28 07:16:16;;;;;;;20.63;19.43;;;11.30;90.70;;;;;;5028519;28;20496;-72
2022/09/28 07:18:42;;;;;;;18.57;17.47;;;11.30;91.00;;;;;;5026897;28;20456;-74
2022/09/28 07:21:09;;;;;;;19.47;18.47;;;11.40;90.50;;;;;;5026523;28;20464;-74
2022/09/28 07:23:36;;;;;;;35.47;33.97;;;11.40;90.20;;;;;;5029089;28;20476;-73
2022/09/28 07:26:05;;;;;;;23.57;22.47;;;11.40;89.40;;;;;;5025993;28;20464;-73
2022/09/28 07:28:32;;;;;;;20.73;19.83;;;11.30;89.70;;;;;;5030275;28;20466;-73
2022/09/28 07:31:02;;;;;;;17.70;16.53;;;11.50;89.50;;;;;;5029135;28;20479;-73
2022/09/28 07:33:31;;;;;;;30.90;29.43;;;11.70;89.10;;;;;;5024506;28;20485;-74
2022/09/28 07:35:59;;;;;;;27.50;26.20;;;11.80;89.30;;;;;;5028447;28;20464;-73
2022/09/28 07:38:26;;;;;;;26.10;24.20;;;11.90;88.60;;;;;;5027566;28;20471;-75
2022/09/28 07:41:12;;;;;;;28.00;26.33;;;12.00;88.30;;;;;;5028642;28;20463;-73
2022/09/28 07:43:39;;;;;;;32.13;30.47;;;12.10;87.60;;;;;;5029043;28;20480;-72
2022/09/28 07:46:10;;;;;;;24.40;23.20;;;12.30;87.10;;;;;;5027818;28;20459;-73
2022/09/28 07:48:39;;;;;;;23.63;22.43;;;12.40;85.90;;;;;;5028403;28;20527;-73
2022/09/28 07:51:07;;;;;;;30.00;28.37;;;12.40;86.00;;;;;;5029211;28;20492;-72
2022/09/28 07:53:35;;;;;;;39.73;37.83;;;12.40;84.50;;;;;;5027732;28;20534;-73
2022/09/28 07:56:06;;;;;;;24.33;23.23;;;12.40;84.00;;;;;;5025174;28;20467;-75
2022/09/28 07:58:34;;;;;;;36.00;34.40;;;12.40;83.80;;;;;;5026194;28;20812;-75
2022/09/28 08:01:05;;;;;;;36.07;34.20;;;12.50;84.30;;;;;;5026297;28;20533;-76
2022/09/28 08:03:33;;;;;;;30.60;29.20;;;12.50;83.40;;;;;;5020577;28;20526;-73
2022/09/28 08:06:02;;;;;;;34.77;33.13;;;12.60;84.10;;;;;;5029296;28;20453;-74
2022/09/28 08:08:30;;;;;;;31.40;30.00;;;12.70;81.70;;;;;;5022874;28;20461;-74
2022/09/28 08:10:57;;;;;;;30.20;28.60;;;12.50;82.80;;;;;;5025073;28;20488;-76
2022/09/28 08:13:25;;;;;;;34.00;32.30;;;12.70;83.10;;;;;;5025689;28;20515;-73
2022/09/28 08:15:52;;;;;;;34.67;32.97;;;12.90;82.80;;;;;;5022524;28;20503;-74
2022/09/28 08:18:20;;;;;;;23.13;22.00;;;13.20;82.80;;;;;;5022637;28;20460;-72
2022/09/28 08:23:36;;;;;;;25.27;23.87;;;13.50;79.00;;;;;;5032669;28;20471;-72
2022/09/28 08:26:02;;;;;;;29.20;27.67;;;13.50;80.40;;;;;;5035953;28;20542;-76
2022/09/28 08:28:30;;;;;;;29.00;27.70;;;13.70;80.00;;;;;;5024686;28;20532;-74
2022/09/28 08:31:00;;;;;;;30.70;29.20;;;13.80;80.00;;;;;;5029658;28;20486;-74
2022/09/28 08:33:27;;;;;;;35.60;33.80;;;13.90;80.40;;;;;;5022580;28;20535;-74
2022/09/28 08:36:00;;;;;;;31.70;30.10;;;14.10;79.50;;;;;;5028555;28;20455;-73
2022/09/28 08:38:28;;;;;;;27.10;25.53;;;14.40;79.30;;;;;;5024304;28;20461;-70
2022/09/28 08:41:06;;;;;;;27.00;25.90;;;14.60;78.30;;;;;;5019271;28;20444;-71
2022/09/28 08:44:00;;;;;;;29.00;27.57;;;14.70;77.20;;;;;;5039631;28;20478;-71
2022/09/28 08:46:33;;;;;;;40.10;38.20;;;14.80;77.40;;;;;;5033805;28;20464;-71
2022/09/28 08:49:06;;;;;;;35.07;33.33;;;15.00;77.20;;;;;;5024868;28;20822;-71
2022/09/28 08:51:41;;;;;;;36.63;34.80;;;15.10;75.30;;;;;;5033722;28;20930;-71
2022/09/28 08:54:17;;;;;;;26.80;25.40;;;15.00;74.50;;;;;;5027742;28;20890;-71
2022/09/28 08:56:49;;;;;;;32.27;30.67;;;14.80;72.70;;;;;;5026310;28;20466;-71
2022/09/28 08:59:19;;;;;;;33.30;31.50;;;14.30;75.20;;;;;;5023666;28;20954;-70
2022/09/28 09:01:50;;;;;;;33.57;31.87;;;13.80;75.50;;;;;;5041746;28;20466;-71
2022/09/28 09:04:17;;;;;;;31.23;29.83;;;13.80;77.40;;;;;;5027558;28;20483;-70
2022/09/28 09:07:10;;;;;;;37.13;35.43;;;13.80;78.00;;;;;;5025360;28;20478;-72
2022/09/28 09:09:51;;;;;;;40.07;38.17;;;14.00;77.50;;;;;;5024975;28;20522;-71
2022/09/28 09:12:25;;;;;;;32.63;31.03;;;14.10;74.40;;;;;;5040437;28;20811;-70
2022/09/28 09:15:25;;;;;;;32.10;30.80;;;14.10;75.60;;;;;;5024900;28;20469;-71
2022/09/28 09:18:06;;;;;;;35.57;33.97;;;13.90;74.50;;;;;;5026198;28;20454;-71
2022/09/28 09:20:44;;;;;;;30.00;28.50;;;13.90;77.60;;;;;;5030832;28;20822;-72
2022/09/28 09:23:17;;;;;;;44.20;42.03;;;14.00;76.10;;;;;;5027516;28;20471;-70
2022/09/28 09:25:49;;;;;;;29.70;28.30;;;14.30;75.00;;;;;;5020671;28;20464;-70
2022/09/28 09:28:49;;;;;;;46.60;44.30;;;14.50;74.40;;;;;;5026767;28;20465;-70
2022/09/28 09:31:29;;;;;;;47.97;45.83;;;14.20;73.50;;;;;;5025618;28;20542;-76
2022/09/28 09:34:17;;;;;;;44.23;42.03;;;14.20;74.40;;;;;;5017765;28;20481;-72
2022/09/28 09:36:59;;;;;;;45.10;42.97;;;14.30;75.00;;;;;;5028087;28;20471;-73
2022/09/28 09:39:42;;;;;;;41.37;39.33;;;14.40;74.30;;;;;;5019756;28;20452;-77
2022/09/28 09:42:20;;;;;;;38.63;36.70;;;14.40;73.20;;;;;;5024042;28;21121;-76
2022/09/28 09:45:09;;;;;;;35.67;33.87;;;14.20;74.40;;;;;;5016896;28;20531;-79
2022/09/28 09:47:40;;;;;;;40.27;38.33;;;14.40;74.70;;;;;;5022741;28;20477;-74
2022/09/28 09:50:15;;;;;;;32.50;31.00;;;14.40;73.80;;;;;;5022429;28;20476;-75
2022/09/28 09:52:48;;;;;;;28.47;27.07;;;14.60;73.30;;;;;;5028197;28;20481;-72
2022/09/28 09:55:24;;;;;;;35.37;33.40;;;14.70;73.90;;;;;;5027846;28;20460;-73
2022/09/28 09:57:54;;;;;;;29.57;28.23;;;14.90;72.50;;;;;;5020990;28;20456;-74
2022/09/28 10:00:21;;;;;;;33.23;31.80;;;14.90;72.20;;;;;;5027284;28;20809;-72
2022/09/28 10:02:49;;;;;;;34.63;33.10;;;14.60;72.30;;;;;;5028525;28;20563;-72
2022/09/28 10:05:21;;;;;;;30.87;29.30;;;14.50;73.10;;;;;;5020728;28;20452;-76
2022/09/28 10:07:53;;;;;;;32.10;30.60;;;14.60;72.50;;;;;;5027023;28;20460;-72
2022/09/28 10:10:26;;;;;;;29.90;28.60;;;14.80;72.60;;;;;;5028551;28;20479;-75
2022/09/28 10:12:53;;;;;;;40.97;38.97;;;14.90;73.70;;;;;;5027947;28;20980;-73
2022/09/28 10:15:24;;;;;;;28.33;26.93;;;15.00;71.20;;;;;;5033078;28;21209;-74
2022/09/28 10:17:52;;;;;;;29.73;28.23;;;14.90;71.70;;;;;;5037300;28;20468;-73
2022/09/28 10:20:19;;;;;;;27.80;26.40;;;15.00;72.60;;;;;;5034216;28;20462;-75
2022/09/28 10:22:46;;;;;;;29.17;27.67;;;14.80;71.20;;;;;;5035190;28;20476;-72
2022/09/28 10:25:13;;;;;;;39.27;37.07;;;14.70;71.40;;;;;;5032899;28;20485;-74
2022/09/28 10:27:45;;;;;;;37.33;35.20;;;14.60;73.20;;;;;;5039449;28;20464;-72
2022/09/28 10:30:17;;;;;;;41.60;39.50;;;14.80;72.50;;;;;;5033506;28;20835;-74
2022/09/28 10:32:45;;;;;;;37.83;35.77;;;15.00;72.20;;;;;;5034419;28;20994;-72
2022/09/28 10:35:20;;;;;;;36.37;34.63;;;15.10;72.00;;;;;;5025893;28;20463;-80
2022/09/28 10:37:53;;;;;;;33.43;31.73;;;15.30;71.20;;;;;;5019551;28;20823;-74
2022/09/28 10:40:38;;;;;;;31.80;30.20;;;15.40;71.10;;;;;;5025981;28;20466;-74
2022/09/28 10:43:18;;;;;;;33.80;32.30;;;15.40;70.00;;;;;;5028744;28;20977;-74
2022/09/28 10:45:45;;;;;;;38.07;36.23;;;15.50;69.80;;;;;;5031933;28;20459;-77
2022/09/28 10:48:19;;;;;;;41.93;40.00;;;15.50;68.80;;;;;;5032098;28;20455;-78
2022/09/28 10:50:59;;;;;;;30.83;29.23;;;15.50;68.80;;;;;;5042604;28;20471;-74
2022/09/28 10:53:25;;;;;;;32.97;31.30;;;15.40;68.60;;;;;;5043182;28;21020;-77
2022/09/28 10:56:01;;;;;;;43.97;41.77;;;15.30;69.30;;;;;;5032578;28;20491;-75
2022/09/28 10:58:38;;;;;;;33.63;32.03;;;15.50;69.00;;;;;;5030924;28;20459;-76
2022/09/28 11:01:10;;;;;;;39.60;37.60;;;15.60;69.20;;;;;;5039239;28;21124;-75
2022/09/28 11:03:49;;;;;;;37.60;35.63;;;15.50;68.10;;;;;;5030702;28;20487;-75
2022/09/28 11:06:24;;;;;;;34.30;32.70;;;15.50;69.10;;;;;;5040580;28;20461;-74
2022/09/28 11:08:51;;;;;;;36.57;34.40;;;15.50;69.10;;;;;;5040072;28;21087;-75
2022/09/28 11:11:19;;;;;;;39.83;37.87;;;15.40;68.60;;;;;;5043960;28;20987;-76
2022/09/28 11:13:50;;;;;;;35.17;33.27;;;15.30;68.20;;;;;;5028484;28;20479;-73
2022/09/28 11:16:23;;;;;;;34.43;32.70;;;14.90;68.20;;;;;;5044470;28;20447;-74
2022/09/28 11:18:51;;;;;;;32.43;30.87;;;14.70;69.40;;;;;;5036747;28;20472;-75
2022/09/28 11:21:22;;;;;;;31.00;29.47;;;14.70;70.30;;;;;;5027205;28;20456;-75
2022/09/28 11:24:04;;;;;;;38.60;36.77;;;14.70;70.40;;;;;;5025320;28;20978;-79
2022/09/28 11:26:37;;;;;;;29.77;28.23;;;14.90;69.20;;;;;;5029441;28;20456;-75
2022/09/28 11:29:18;;;;;;;31.00;29.70;;;15.00;67.30;;;;;;5032327;28;20458;-74
2022/09/28 11:31:46;;;;;;;34.13;32.50;;;15.00;68.30;;;;;;5042704;28;20507;-78
2022/09/28 11:34:19;;;;;;;43.73;41.67;;;14.90;68.10;;;;;;5030742;28;20501;-76
2022/09/28 11:37:16;;;;;;;38.77;36.87;;;15.10;68.60;;;;;;5031388;28;20456;-76
2022/09/28 11:39:52;;;;;;;33.30;31.57;;;15.20;67.10;;;;;;5029594;28;20470;-73
2022/09/28 11:42:30;;;;;;;28.43;26.87;;;15.10;68.30;;;;;;5026015;28;20980;-76
2022/09/28 11:45:12;;;;;;;31.13;29.43;;;15.00;68.20;;;;;;5028256;28;20468;-76
2022/09/28 11:47:56;;;;;;;29.07;27.23;;;15.00;68.20;;;;;;5033292;28;20466;-76
2022/09/28 11:50:30;;;;;;;29.10;27.57;;;15.30;66.80;;;;;;5034513;28;20486;-75
2022/09/28 11:53:08;;;;;;;27.97;26.47;;;15.00;66.50;;;;;;5032606;28;20495;-77
2022/09/28 11:55:40;;;;;;;39.60;37.30;;;14.70;67.30;;;;;;5037506;28;20459;-76
2022/09/28 11:58:15;;;;;;;28.63;27.13;;;14.70;68.40;;;;;;5031118;28;20468;-76
2022/09/28 12:00:49;;;;;;;31.90;30.17;;;14.80;68.50;;;;;;5027644;28;20555;-77
2022/09/28 12:03:20;;;;;;;26.67;25.10;;;15.00;67.40;;;;;;5026317;28;20475;-77
2022/09/28 12:05:51;;;;;;;27.83;26.43;;;15.10;67.00;;;;;;5036389;28;20463;-76
2022/09/28 12:08:24;;;;;;;32.90;31.20;;;15.30;65.80;;;;;;5030620;28;20544;-75
2022/09/28 12:10:57;;;;;;;28.30;26.90;;;15.30;65.60;;;;;;5030423;28;20908;-73
2022/09/28 12:13:28;;;;;;;31.43;29.83;;;15.40;65.40;;;;;;5026492;28;20475;-72
2022/09/28 12:16:01;;;;;;;27.63;26.13;;;15.40;65.00;;;;;;5022457;28;20472;-70
2022/09/28 12:18:36;;;;;;;27.83;26.33;;;15.40;65.10;;;;;;5027256;28;20463;-70
2022/09/28 12:21:14;;;;;;;29.47;27.97;;;15.50;64.80;;;;;;5026997;28;20463;-71
2022/09/28 12:23:43;;;;;;;30.77;29.27;;;15.60;65.10;;;;;;5024745;28;20589;-71
2022/09/28 12:26:25;;;;;;;29.97;28.50;;;15.80;64.70;;;;;;5031762;28;20458;-72
2022/09/28 12:28:58;;;;;;;28.17;26.67;;;16.10;62.90;;;;;;5028683;28;20456;-72
2022/09/28 12:31:34;;;;;;;31.23;29.60;;;16.20;62.50;;;;;;5037345;28;20487;-73
2022/09/28 12:34:02;;;;;;;36.77;34.87;;;16.40;61.60;;;;;;5031732;28;20586;-72
2022/09/28 12:36:40;;;;;;;38.60;36.60;;;16.50;60.80;;;;;;5028965;28;20456;-71
2022/09/28 12:39:24;;;;;;;36.70;34.80;;;16.70;60.50;;;;;;5039080;28;20470;-71
2022/09/28 12:42:06;;;;;;;38.77;36.87;;;16.70;60.50;;;;;;5025396;28;20464;-76
2022/09/28 12:44:55;;;;;;;47.07;44.70;;;16.70;60.60;;;;;;5026626;28;20478;-73
2022/09/28 12:47:48;;;;;;;33.10;31.60;;;16.70;60.80;;;;;;5023393;28;20551;-73
2022/09/28 12:50:24;;;;;;;30.10;28.67;;;16.80;60.40;;;;;;5028010;28;20464;-72
2022/09/28 12:53:06;;;;;;;31.20;29.80;;;16.90;60.00;;;;;;5023538;28;20495;-75
2022/09/28 12:55:47;;;;;;;33.10;31.50;;;16.90;60.30;;;;;;5021622;28;20471;-73